Vielha, Spain
Current Conditions -  °F | °C
As of 5:00 PM on Friday 24 Oct 2014 (Local Time) from LFBT Reporting Station
Clear Clear  
Wind Chill: 75°   Ceiling: Unl
Heat Index: 75°   Visibility: 6mi
Dew Point: 45°   Wind: 3mph
Humidity: 34%   Direction: 310°NW
Pressure: 30.09"   Gusts: NA
Location:  42.7°N, 0.8°E
Report Text: LFBT 241500Z AUTO 31003KT 280V340 9999 NSC 24/07 Q1019
Loading
Personal Weather Stations






























Interactive Weather Map
Tropical Storm Tracking
New forecast layout! Learn more

10-Day Weather Forecast

Advertisements
Track Severe Weather on mobile